首页
METAR-TAF:

METAR-TAF

机场 :

Rowan County Airport

Salisbury, 北卡罗来纳州, 美国

纬度: 35-39N, 经度: 080-31W, 海拔: 236米

当前天气观测

该预报发布于12分钟前的09:40 UTC
静风
温度 20°C
湿度 100%
气压 1020 hPa
能見度: 3.2公里
天空无云
轻雾

METAR: KRUQ 260940Z AUTO 00000KT 2SM BR CLR 20/20 A3011 RMK AO2 T01950195

时间: 05:52 (09:52 UTC)


TAF: 丢失

超过4000个机场的气象观测和天气预报(METAR&TAF报告)。

可查询的气象台以黄色和红色小点在地图上表示。

将鼠标移到小点上方,可查看气象台名称。

然后点击查看天气观测和预报。

如需切换地图:点击带黑十字的绿色按钮放大地图;点击带横线的绿色按钮缩小地图;或者点击绿色箭头查看邻近地区的地图。


METAR-TAF: